Zim Qingdao — A8IZ2 — position and weather

sailwx.info

Track history (hours):
 
Tides and Currents Weather Stations Pressure Air Temp Water Temp Dewpoint Dewpoint Depression Visibility Wind Speed Wind Dir Waves Ship Positions

Zim Qingdao

Last reported at 2016-Dec-06 08:33 UTC. Time now 2016-Dec-11 06:12 UTC.
Position N 01°52' E 102°29'.

Length 260.61 m; beam 32.25 m; draft 12.6 m.

Type: Cargo ship. MMSI: 636012904.

Date/timePositionNaut miles runAvg speedWind from/ knotsBaromVisibWave heightAir tempDewpointWater temp
2016-Dec-06 08:33N 01°52' E 102°29'3618.3
2016-Dec-06 06:33N 01°35' E 103°02'5616.3
2016-Dec-06 03:07N 01°12' E 103°52'  
2016-Dec-02 17:23N 22°18' E 114°06'1211.7
2016-Dec-02 16:22N 22°23' E 113°54'3 0.2
2016-Dec-02 04:33N 22°25' E 113°53'63315.3
2016-Nov-30 11:09N 29°39' E 122°26'8 8.6
2016-Nov-30 10:15N 29°44' E 122°19'2 2.6
2016-Nov-30 09:19N 29°46' E 122°17'1112.7
2016-Nov-30 08:25N 29°55' E 122°09'1314.5
2016-Nov-30 07:31N 29°59' E 121°55'4 0.8
2016-Nov-30 02:12N 29°57' E 121°50'0 0.0
2016-Nov-30 00:17N 29°57' E 121°50'0 0.0
2016-Nov-29 20:05N 29°57' E 121°50'0 0.0
2016-Nov-29 19:17N 29°57' E 121°50'0 0.0
2016-Nov-29 18:11N 29°57' E 121°50'0 0.0
2016-Nov-29 17:32N 29°57' E 121°50'7 7.4
2016-Nov-29 16:33N 29°58' E 121°58'1110.8
2016-Nov-29 15:34N 29°55' E 122°10'1413.6
2016-Nov-29 14:33N 29°45' E 122°21'7 3.4
2016-Nov-29 12:32N 29°46' E 122°29'0 0.0
2016-Nov-29 09:11N 29°46' E 122°29'0 0.0
2016-Nov-28 20:26N 29°46' E 122°29'0 0.0
2016-Nov-28 18:05N 29°46' E 122°29'0 0.0
2016-Nov-28 17:23N 29°46' E 122°29'0 0.0
2016-Nov-28 16:29N 29°46' E 122°29'0 0.0
2016-Nov-28 15:23N 29°46' E 122°29'2 2.1
2016-Nov-28 14:33N 29°45' E 122°27'7 7.4
2016-Nov-28 13:33N 29°47' E 122°35'1311.7
2016-Nov-28 12:28N 29°58' E 122°43'1513.1
2016-Nov-28 11:20N 30°12' E 122°48'18 0.7
2016-Nov-27 10:18N 30°31' E 122°48'  
Track history (hours):
 
Tides and Currents Weather Stations Pressure Air Temp Water Temp Dewpoint Dewpoint Depression Visibility Wind Speed Wind Dir Waves Ship Positions

Zim Qingdao

Last reported at 2016-Dec-06 08:33 UTC. Time now 2016-Dec-11 06:12 UTC.
Position N 01°52' E 102°29'.

Length 260.61 m; beam 32.25 m; draft 12.6 m.

Type: Cargo ship. MMSI: 636012904.

Date/timePositionNaut miles runAvg speedWind from/ knotsBaromVisibWave heightAir tempDewpointWater temp
2016-Dec-06 08:33N 01°52' E 102°29'3618.3
2016-Dec-06 06:33N 01°35' E 103°02'5616.3
2016-Dec-06 03:07N 01°12' E 103°52'  
2016-Dec-02 17:23N 22°18' E 114°06'1211.7
2016-Dec-02 16:22N 22°23' E 113°54'3 0.2
2016-Dec-02 04:33N 22°25' E 113°53'63315.3
2016-Nov-30 11:09N 29°39' E 122°26'8 8.6
2016-Nov-30 10:15N 29°44' E 122°19'2 2.6
2016-Nov-30 09:19N 29°46' E 122°17'1112.7
2016-Nov-30 08:25N 29°55' E 122°09'1314.5
2016-Nov-30 07:31N 29°59' E 121°55'4 0.8
2016-Nov-30 02:12N 29°57' E 121°50'0 0.0
2016-Nov-30 00:17N 29°57' E 121°50'0 0.0
2016-Nov-29 20:05N 29°57' E 121°50'0 0.0
2016-Nov-29 19:17N 29°57' E 121°50'0 0.0
2016-Nov-29 18:11N 29°57' E 121°50'0 0.0
2016-Nov-29 17:32N 29°57' E 121°50'7 7.4
2016-Nov-29 16:33N 29°58' E 121°58'1110.8
2016-Nov-29 15:34N 29°55' E 122°10'1413.6
2016-Nov-29 14:33N 29°45' E 122°21'7 3.4
2016-Nov-29 12:32N 29°46' E 122°29'0 0.0
2016-Nov-29 09:11N 29°46' E 122°29'0 0.0
2016-Nov-28 20:26N 29°46' E 122°29'0 0.0
2016-Nov-28 18:05N 29°46' E 122°29'0 0.0
2016-Nov-28 17:23N 29°46' E 122°29'0 0.0
2016-Nov-28 16:29N 29°46' E 122°29'0 0.0
2016-Nov-28 15:23N 29°46' E 122°29'2 2.1
2016-Nov-28 14:33N 29°45' E 122°27'7 7.4
2016-Nov-28 13:33N 29°47' E 122°35'1311.7
2016-Nov-28 12:28N 29°58' E 122°43'1513.1
2016-Nov-28 11:20N 30°12' E 122°48'18 0.7
2016-Nov-27 10:18N 30°31' E 122°48'  

Dump ship's entire track history